Flight Track Log - Related Links

Times and Time Zones

All times are in EDT time to prevent confusion due to time zone crossing. See the SKW6492 flight status page for this flight to view local times or setup timezone preferences in your user account.

Time Position Orientation Groundspeed Altitude Reporting Facility
EDT Latitude Longitude Course Direction KTS MPH feet Rate Location/Type
Mon 09:59:17 PM 39.8500 -104.7833 346° North 200 230 7,700  Level Denver TRACON
Mon 10:00:17 PM 39.8833 -104.8667 298° West 259 298 9,400 1,627 Climbing Denver TRACON
Mon 10:01:15 PM 39.9411 -104.9281 321° Northwest 284 327 10,900 1,700 Climbing Denver Center
Mon 10:02:17 PM 40.0292 -104.9461 351° North 304 350 12,800 1,790 Climbing Denver Center
Mon 10:03:19 PM 40.1122 -104.9122 17° North 319 367 14,600 1,597 Climbing Denver Center
Mon 10:04:00 PM 40.4932 -104.8755 346° North  Level FlightAware Approximate
Mon 10:04:21 PM 40.1989 -104.8775 17° North 337 388 16,100  Level Denver Center
Mon 10:05:22 PM 40.3031 -104.8728 North 347 399 17,700 1,463 Climbing Denver Center
Mon 10:06:24 PM 40.4019 -104.8694 North 353 406 19,100 1,306 Climbing Denver Center
Mon 10:07:26 PM 40.5139 -104.8628 North 373 429 20,400 1,258 Climbing Denver Center
Mon 10:08:28 PM 40.6167 -104.8611 North 370 426 21,700 1,210 Climbing Denver Center
Mon 10:09:30 PM 40.7239 -104.8525 North 388 447 22,900 1,073 Climbing Denver Center
Mon 10:10:31 PM 40.8269 -104.8692 353° North 378 435 23,900 927 Climbing Denver Center
Mon 10:11:33 PM 40.9278 -104.9172 340° North 387 445 24,800 774 Climbing Denver Center
Mon 10:12:35 PM 41.0311 -104.9692 339° North 391 450 25,500 780 Climbing Denver Center
Mon 10:13:36 PM 41.1481 -105.0250 340° North 398 458 26,400 732 Climbing Denver Center
Mon 10:14:38 PM 41.2497 -105.0761 339° North 406 467 27,000 677 Climbing Denver Center
Mon 10:15:40 PM 41.3719 -105.1372 339° North 418 481 27,800 683 Climbing Denver Center
Mon 10:16:41 PM 41.4758 -105.1897 339° North 418 481 28,400 439 Climbing Denver Center
Mon 10:17:43 PM 41.5811 -105.2483 337° Northwest 425 489 28,700 439 Climbing Denver Center
Mon 10:18:44 PM 41.6892 -105.3481 325° Northwest 426 490 29,300 537 Climbing Denver Center
Mon 10:19:46 PM 41.7717 -105.4467 318° Northwest 416 479 29,800 537 Climbing Denver Center
Mon 10:20:47 PM 41.8694 -105.5658 318° Northwest 422 486 30,400 439 Climbing Denver Center
Mon 10:21:49 PM 41.9542 -105.6694 318° Northwest 425 489 30,700 341 Climbing Denver Center
Mon 10:22:50 PM 42.0403 -105.7733 318° Northwest 431 496 31,100 537 Climbing Denver Center
Mon 10:23:52 PM 42.1381 -105.8953 317° Northwest 430 495 31,800 439 Climbing Denver Center
Mon 10:24:53 PM 42.2222 -106.0006 317° Northwest 430 495 32,000 98 Climbing Denver Center
Mon 10:25:55 PM 42.3233 -106.1272 317° Northwest 441 507 32,000  Level Denver Center
Mon 10:26:56 PM 42.4125 -106.2372 318° Northwest 450 518 32,000  Level Denver Center
Mon 10:27:58 PM 42.5014 -106.3497 317° Northwest 457 526 32,000  Level Denver Center
Mon 10:28:59 PM 42.6044 -106.4800 317° Northwest 454 522 32,000  Level Denver Center
Mon 10:30:01 PM 42.6925 -106.5908 317° Northwest 451 519 32,000  Level Denver Center
Mon 10:31:02 PM 42.7961 -106.7225 317° Northwest 454 522 32,000  Level Denver Center
Mon 10:32:04 PM 42.8833 -106.8353 317° Northwest 453 521 32,000  Level Denver Center
Mon 10:32:55 PM 42.9558 -106.9308 316° Northwest 453 521 32,000  Level Salt Lake Center
Mon 10:33:57 PM 43.0592 -107.0656 316° Northwest 454 522 32,000  Level Salt Lake Center
Mon 10:34:58 PM 43.1494 -107.1811 317° Northwest 447 514 32,000  Level Salt Lake Center
Mon 10:36:00 PM 43.2403 -107.2994 317° Northwest 450 518 32,000  Level Salt Lake Center
Mon 10:37:02 PM 43.3306 -107.4158 317° Northwest 447 514 32,000  Level Salt Lake Center
Mon 10:38:03 PM 43.4203 -107.5356 316° Northwest 449 517 32,000  Level Salt Lake Center
Mon 10:39:05 PM 43.5097 -107.6531 316° Northwest 445 512 32,000  Level Salt Lake Center
Mon 10:40:07 PM 43.5981 -107.7714 316° Northwest 444 511 32,000  Level Salt Lake Center
Mon 10:41:08 PM 43.6872 -107.8900 316° Northwest 444 511 32,000  Level Salt Lake Center
Mon 10:42:10 PM 43.7936 -108.0328 316° Northwest 443 510 32,000 -1,024 Level Salt Lake Center
Mon 10:43:11 PM 43.8850 -108.1431 319° Northwest 439 505 29,900 -2,488 Descending Salt Lake Center
Mon 10:44:13 PM 43.9869 -108.2217 331° Northwest 423 487 26,900 -2,903 Descending Salt Lake Center
Mon 10:45:15 PM 44.0797 -108.2928 331° Northwest 388 447 23,900 -2,927 Descending Salt Lake Center
Mon 10:46:16 PM 44.1656 -108.3619 330° Northwest 363 418 20,900 -2,780 Descending Salt Lake Center
Mon 10:47:18 PM 44.2450 -108.4272 330° Northwest 341 392 18,200 -2,419 Descending Salt Lake Center
Mon 10:48:20 PM 44.3247 -108.4903 331° Northwest 331 381 15,900 -2,341 Descending Salt Lake Center
Mon 10:49:21 PM 44.4031 -108.5536 330° Northwest 328 377 13,400 -2,341 Descending Salt Lake Center
Mon 10:50:23 PM 44.4942 -108.6272 330° Northwest 323 372 11,100 -1,887 Descending Salt Lake Center
Mon 10:51:25 PM 44.5642 -108.6842 330° Northwest 310 357 9,500 -1,024 Descending Salt Lake Center
Mon 10:52:26 PM 44.6269 -108.7344 330° Northwest 288 331 9,000 -585 Descending Salt Lake Center
Mon 10:53:28 PM 44.6439 -108.7992 290° West 240 276 8,300 -677 Descending Salt Lake Center

Login

Don't have an account? Register now (free) for customized features, flight alerts, and more!